Time;durP1;ratioP1;P1;durP2;ratioP2;P2;SDS_P1;SDS_P2;PMS_P1;PMS_P2;Temp;Humidity;BMP_temperature;BMP_pressure;BME280_temperature;BME280_humidity;BME280_pressure;Samples;Min_cycle;Max_cycle;Signal;HPM_P1;HPM_P2
2022/04/29 00:00:05;;;;;;;;;;;8.80;93.30;;;;;;5041403;28;20211;-68
2022/04/29 00:02:32;;;;;;;;;;;8.80;93.00;;;;;;5039881;28;19909;-68
2022/04/29 00:04:57;;;;;;;;;;;8.80;92.80;;;;;;5041388;28;20196;-68
2022/04/29 00:07:23;;;;;;;;;;;8.80;92.70;;;;;;5041241;28;20065;-68
2022/04/29 00:09:49;;;;;;;;;;;8.70;92.80;;;;;;5040910;28;20157;-70
2022/04/29 00:12:15;;;;;;;;;;;8.60;92.80;;;;;;5040840;28;19936;-68
2022/04/29 00:14:40;;;;;;;;;;;8.60;92.80;;;;;;5040946;28;19972;-67
2022/04/29 00:17:06;;;;;;;;;;;8.60;92.80;;;;;;5041151;28;20020;-67
2022/04/29 00:19:32;;;;;;;;;;;8.60;93.20;;;;;;5040942;28;19972;-67
2022/04/29 00:21:59;;;;;;;;;;;8.60;93.30;;;;;;5040909;28;19917;-67
2022/04/29 00:24:24;;;;;;;;;;;8.60;93.30;;;;;;5040766;28;19910;-67
2022/04/29 00:26:50;;;;;;;;;;;8.60;93.20;;;;;;5041163;28;20007;-67
2022/04/29 00:29:16;;;;;;;;;;;8.50;93.30;;;;;;5044137;28;20204;-67
2022/04/29 00:31:42;;;;;;;;;;;8.50;93.30;;;;;;5045341;28;19917;-68
2022/04/29 00:34:07;;;;;;;;;;;8.50;93.20;;;;;;5050606;28;19909;-67
2022/04/29 00:36:33;;;;;;;;;;;8.40;93.30;;;;;;5046940;28;20144;-67
2022/04/29 00:38:59;;;;;;;;;;;8.40;93.50;;;;;;5044864;28;19913;-68
2022/04/29 00:41:24;;;;;;;;;;;8.30;93.70;;;;;;5044757;28;19909;-67
2022/04/29 00:44:05;;;;;;;;;;;8.20;94.00;;;;;;5044925;28;19976;-67
2022/04/29 00:46:35;;;;;;;;;;;8.10;94.30;;;;;;5044968;28;19921;-67
2022/04/29 00:49:02;;;;;;;;;;;8.10;94.40;;;;;;5044872;28;19970;-67
2022/04/29 00:51:28;;;;;;;;;;;8.10;94.30;;;;;;5044591;28;19913;-67
2022/04/29 00:53:54;;;;;;;;;;;8.10;94.30;;;;;;5044590;28;19917;-70
2022/04/29 00:56:20;;;;;;;;;;;8.10;94.60;;;;;;5043451;28;19966;-68
2022/04/29 00:58:49;;;;;;;;;;;8.10;94.60;;;;;;5043359;28;19909;-69
2022/04/29 01:01:14;;;;;;;;;;;8.00;94.80;;;;;;5043343;28;19913;-68
2022/04/29 01:03:40;;;;;;;;;;;8.00;94.80;;;;;;5026915;28;19991;-68
2022/04/29 01:06:06;;;;;;;;;;;7.90;95.10;;;;;;5026684;28;19932;-69
2022/04/29 01:08:31;;;;;;;;;;;7.90;95.10;;;;;;5044325;28;19955;-69
2022/04/29 01:10:57;;;;;;;;;;;7.90;95.10;;;;;;5043811;28;19916;-70
2022/04/29 01:13:23;;;;;;;;;;;7.80;95.20;;;;;;5043323;28;19928;-69
2022/04/29 01:15:50;;;;;;;;;;;7.90;95.20;;;;;;5043654;28;19917;-68
2022/04/29 01:18:17;;;;;;;;;;;8.00;95.00;;;;;;5042985;28;19924;-68
2022/04/29 01:20:42;;;;;;;;;;;8.00;94.90;;;;;;5042824;28;19984;-69
2022/04/29 01:23:12;;;;;;;;;;;8.00;94.80;;;;;;5044134;28;19920;-69
2022/04/29 01:25:38;;;;;;;;;;;7.80;94.90;;;;;;5042588;28;20297;-69
2022/04/29 01:28:04;;;;;;;;;;;7.80;95.00;;;;;;5042751;28;19913;-69
2022/04/29 01:30:31;;;;;;;;;;;7.80;95.00;;;;;;5044017;28;19909;-69
2022/04/29 01:32:57;;;;;;;;;;;7.70;95.10;;;;;;5043757;28;19995;-69
2022/04/29 01:35:22;;;;;;;;;;;7.60;95.30;;;;;;5044104;28;19909;-69
2022/04/29 01:37:48;;;;;;;;;;;7.70;95.40;;;;;;5061489;22;19964;-73
2022/04/29 01:40:14;;;;;;;;;;;7.70;95.30;;;;;;5041759;28;19979;-73
2022/04/29 01:42:41;;;;;;;;;;;7.70;95.20;;;;;;5044762;28;19976;-73
2022/04/29 01:45:08;;;;;;;;;;;7.60;95.30;;;;;;5043566;28;19943;-72
2022/04/29 01:47:34;;;;;;;;;;;7.50;95.50;;;;;;5043697;28;20124;-72
2022/04/29 01:50:00;;;;;;;;;;;7.40;95.70;;;;;;5043728;28;19909;-71
2022/04/29 01:52:25;;;;;;;;;;;7.40;95.80;;;;;;5043065;28;19955;-71
2022/04/29 01:54:51;;;;;;;;;;;7.30;96.20;;;;;;5044766;28;19913;-72
2022/04/29 01:57:17;;;;;;;;;;;7.20;96.20;;;;;;5044504;28;19989;-72
2022/04/29 01:59:43;;;;;;;;;;;7.30;96.20;;;;;;5027035;28;19917;-72
2022/04/29 02:02:08;;;;;;;;;;;7.30;96.20;;;;;;5044343;28;19909;-72
2022/04/29 02:04:34;;;;;;;;;;;7.20;96.20;;;;;;5026887;28;19909;-72
2022/04/29 02:07:01;;;;;;;;;;;7.00;96.70;;;;;;5026613;28;19909;-71
2022/04/29 02:09:27;;;;;;;;;;;7.10;96.60;;;;;;5043404;28;19909;-71
2022/04/29 02:12:05;;;;;;;;;;;7.20;96.30;;;;;;5039849;28;20001;-71
2022/04/29 02:14:34;;;;;;;;;;;7.20;96.00;;;;;;5044299;28;19909;-72
2022/04/29 02:17:02;;;;;;;;;;;7.20;95.90;;;;;;5043340;28;20246;-72
2022/04/29 02:19:28;;;;;;;;;;;7.20;96.00;;;;;;5043327;28;20276;-72
2022/04/29 02:21:55;;;;;;;;;;;7.00;96.50;;;;;;5042759;28;19909;-72
2022/04/29 02:24:20;;;;;;;;;;;6.90;96.50;;;;;;5044299;28;19932;-72
2022/04/29 02:26:46;;;;;;;;;;;6.80;96.80;;;;;;5042995;28;19913;-72
2022/04/29 02:29:12;;;;;;;;;;;6.70;96.90;;;;;;5026720;28;19909;-73
2022/04/29 02:31:38;;;;;;;;;;;6.60;97.00;;;;;;5043757;28;20102;-72
2022/04/29 02:34:04;;;;;;;;;;;6.60;97.10;;;;;;5044141;28;19951;-72
2022/04/29 02:36:29;;;;;;;;;;;6.60;97.20;;;;;;5042886;28;19916;-71
2022/04/29 02:38:55;;;;;;;;;;;6.50;97.40;;;;;;5043674;28;19980;-72
2022/04/29 02:41:21;;;;;;;;;;;6.40;97.70;;;;;;5043712;28;20147;-71
2022/04/29 02:43:46;;;;;;;;;;;6.50;97.60;;;;;;5042824;28;19909;-71
2022/04/29 02:46:12;;;;;;;;;;;6.40;97.70;;;;;;5043851;28;20246;-71
2022/04/29 02:48:38;;;;;;;;;;;6.50;97.60;;;;;;5043811;28;19917;-72
2022/04/29 02:51:04;;;;;;;;;;;6.50;97.70;;;;;;5041756;28;19909;-71
2022/04/29 02:53:31;;;;;;;;;;;6.40;97.60;;;;;;5025974;28;19909;-72
2022/04/29 02:55:57;;;;;;;;;;;6.40;97.40;;;;;;5042422;28;20107;-71
2022/04/29 02:58:22;;;;;;;;;;;6.40;97.40;;;;;;5026094;28;19924;-73
2022/04/29 03:00:48;;;;;;;;;;;6.40;97.30;;;;;;5043282;28;19980;-72
2022/04/29 03:03:14;;;;;;;;;;;6.40;97.30;;;;;;5043550;28;19918;-73
2022/04/29 03:05:40;;;;;;;;;;;6.30;97.30;;;;;;5025861;28;19909;-72
2022/04/29 03:08:06;;;;;;;;;;;6.30;97.40;;;;;;5041698;28;19909;-72
2022/04/29 03:10:33;;;;;;;;;;;6.30;97.40;;;;;;5041837;28;19916;-72
2022/04/29 03:12:58;;;;;;;;;;;6.40;97.40;;;;;;5043120;28;19921;-72
2022/04/29 03:15:25;;;;;;;;;;;6.30;97.10;;;;;;5043235;28;19916;-72
2022/04/29 03:20:36;;;;;;;;;;;6.30;97.30;;;;;;5041448;28;19951;-71
2022/04/29 03:23:02;;;;;;;;;;;6.40;97.20;;;;;;5041832;28;19909;-72
2022/04/29 03:25:28;;;;;;;;;;;6.20;97.70;;;;;;5025460;28;19929;-72
2022/04/29 03:27:54;;;;;;;;;;;6.20;97.90;;;;;;5042953;28;20043;-73
2022/04/29 03:30:20;;;;;;;;;;;6.20;98.00;;;;;;5041850;28;20108;-73
2022/04/29 03:33:04;;;;;;;;;;;6.20;98.00;;;;;;5042636;28;19917;-73
2022/04/29 03:35:30;;;;;;;;;;;6.20;98.10;;;;;;5041827;28;20223;-73
2022/04/29 03:37:56;;;;;;;;;;;6.20;98.00;;;;;;5041284;28;19913;-73
2022/04/29 03:40:23;;;;;;;;;;;6.20;98.10;;;;;;5042843;28;19909;-73
2022/04/29 03:42:50;;;;;;;;;;;6.20;98.30;;;;;;5041441;28;20035;-73
2022/04/29 03:45:15;;;;;;;;;;;6.10;99.00;;;;;;5042716;28;20202;-72
2022/04/29 03:47:42;;;;;;;;;;;6.10;99.00;;;;;;5042625;28;19909;-72
2022/04/29 03:50:08;;;;;;;;;;;6.00;99.10;;;;;;5041595;28;20000;-72
2022/04/29 03:52:34;;;;;;;;;;;6.00;99.30;;;;;;5024454;28;19948;-73
2022/04/29 03:55:00;;;;;;;;;;;6.10;99.30;;;;;;5042649;28;19916;-72
2022/04/29 03:57:26;;;;;;;;;;;6.10;99.50;;;;;;5042557;28;19909;-72
2022/04/29 03:59:52;;;;;;;;;;;6.00;99.80;;;;;;5042598;28;19947;-72
2022/04/29 04:02:17;;;;;;;;;;;6.00;99.90;;;;;;5057026;28;20231;-72
2022/04/29 04:04:44;;;;;;;;;;;6.00;99.90;;;;;;5041326;28;19917;-72
2022/04/29 04:07:10;;;;;;;;;;;6.00;99.90;;;;;;5042091;28;20004;-72
2022/04/29 04:09:36;;;;;;;;;;;6.00;99.90;;;;;;5042512;28;19927;-72
2022/04/29 04:12:02;;;;;;;;;;;6.10;99.70;;;;;;5040933;28;19914;-72
2022/04/29 04:14:27;;;;;;;;;;;6.00;99.80;;;;;;5042408;28;19917;-72
2022/04/29 04:16:53;;;;;;;;;;;6.00;99.80;;;;;;5041202;28;19917;-72
2022/04/29 04:19:19;;;;;;;;;;;6.00;99.70;;;;;;5041842;28;19932;-72
2022/04/29 04:21:45;;;;;;;;;;;5.90;99.50;;;;;;5042103;28;19961;-72
2022/04/29 04:24:11;;;;;;;;;;;6.00;99.60;;;;;;5042235;28;19909;-72
2022/04/29 04:26:37;;;;;;;;;;;5.90;99.50;;;;;;5041288;28;19937;-73
2022/04/29 04:29:02;;;;;;;;;;;6.00;99.40;;;;;;5042227;28;19940;-72
2022/04/29 04:31:28;;;;;;;;;;;6.00;99.30;;;;;;5041891;28;19956;-73
2022/04/29 04:33:54;;;;;;;;;;;6.00;99.60;;;;;;5042349;28;19917;-72
2022/04/29 04:36:19;;;;;;;;;;;6.00;99.60;;;;;;5042329;28;19972;-72
2022/04/29 04:38:47;;;;;;;;;;;6.00;99.50;;;;;;5040905;28;19917;-72
2022/04/29 04:41:15;;;;;;;;;;;6.10;99.40;;;;;;5042228;28;19952;-72
2022/04/29 04:43:43;;;;;;;;;;;6.10;99.20;;;;;;5041270;28;19913;-72
2022/04/29 04:46:09;;;;;;;;;;;6.10;99.30;;;;;;5040270;28;20139;-72
2022/04/29 04:48:35;;;;;;;;;;;6.00;99.30;;;;;;5042152;28;19909;-72
2022/04/29 04:51:04;;;;;;;;;;;6.00;99.40;;;;;;5042069;28;20168;-72
2022/04/29 04:53:30;;;;;;;;;;;6.00;99.50;;;;;;5041964;28;19909;-72
2022/04/29 04:55:56;;;;;;;;;;;6.10;99.60;;;;;;5024775;28;19924;-72
2022/04/29 04:58:21;;;;;;;;;;;6.10;99.40;;;;;;5042011;28;19909;-72
2022/04/29 05:00:47;;;;;;;;;;;6.20;99.10;;;;;;5041908;28;19940;-72
2022/04/29 05:03:13;;;;;;;;;;;6.20;99.00;;;;;;5041081;28;19917;-72
2022/04/29 05:05:39;;;;;;;;;;;6.30;99.00;;;;;;5042266;28;20015;-72
2022/04/29 05:08:05;;;;;;;;;;;6.40;98.70;;;;;;5040641;28;19909;-72
2022/04/29 05:10:30;;;;;;;;;;;6.40;98.70;;;;;;5039992;28;20052;-72
2022/04/29 05:12:56;;;;;;;;;;;6.40;98.60;;;;;;5041466;28;19920;-72
2022/04/29 05:15:22;;;;;;;;;;;6.40;98.60;;;;;;5043816;28;19916;-72
2022/04/29 05:17:48;;;;;;;;;;;6.50;98.50;;;;;;5044612;28;19917;-72
2022/04/29 05:20:15;;;;;;;;;;;6.50;98.30;;;;;;5044757;28;19916;-76
2022/04/29 05:22:41;;;;;;;;;;;6.60;98.40;;;;;;5008081;28;19956;-77
2022/04/29 05:25:07;;;;;;;;;;;6.80;98.20;;;;;;5021423;28;19917;-76
2022/04/29 05:27:33;;;;;;;;;;;6.80;98.00;;;;;;5040994;28;19921;-77
2022/04/29 05:29:59;;;;;;;;;;;6.90;97.60;;;;;;5031347;28;20392;-77
2022/04/29 05:32:26;;;;;;;;;;;7.10;97.60;;;;;;5067625;28;19917;-77
2022/04/29 05:34:52;;;;;;;;;;;7.20;97.30;;;;;;5032660;28;19909;-78
2022/04/29 05:37:18;;;;;;;;;;;7.30;97.00;;;;;;5032310;28;19920;-78
2022/04/29 05:42:29;;;;;;;;;;;7.60;96.40;;;;;;5050444;28;19916;-78
2022/04/29 05:44:54;;;;;;;;;;;7.70;96.30;;;;;;5029453;22;19904;-71
2022/04/29 05:47:20;;;;;;;;;;;7.80;96.10;;;;;;5047413;28;19949;-70
2022/04/29 05:49:46;;;;;;;;;;;7.90;95.70;;;;;;5044711;28;19915;-71
2022/04/29 05:52:11;;;;;;;;;;;8.10;95.70;;;;;;5044533;28;20198;-70
2022/04/29 05:54:37;;;;;;;;;;;8.20;95.50;;;;;;5043578;28;19919;-70
2022/04/29 05:57:03;;;;;;;;;;;8.20;95.10;;;;;;5026982;28;19928;-71
2022/04/29 05:59:32;;;;;;;;;;;8.30;95.10;;;;;;5044561;28;19944;-70
2022/04/29 06:01:58;;;;;;;;;;;8.40;94.40;;;;;;5044166;28;19917;-70
2022/04/29 06:04:23;;;;;;;;;;;8.50;94.00;;;;;;5027046;28;19910;-70
2022/04/29 06:06:49;;;;;;;;;;;8.50;94.00;;;;;;5044479;28;19943;-70
2022/04/29 06:09:15;;;;;;;;;;;8.60;93.90;;;;;;5044456;28;19910;-70
2022/04/29 06:11:41;;;;;;;;;;;8.70;93.60;;;;;;5042904;28;19910;-71
2022/04/29 06:14:06;;;;;;;;;;;8.70;93.30;;;;;;5044331;28;19919;-72
2022/04/29 06:16:33;;;;;;;;;;;8.80;93.90;;;;;;5029830;28;19914;-71
2022/04/29 06:18:59;;;;;;;;;;;9.00;94.60;;;;;;5023289;28;19910;-71
2022/04/29 06:21:25;;;;;;;;;;;9.20;94.70;;;;;;5024208;28;19917;-71
2022/04/29 06:23:51;;;;;;;;;;;9.30;94.40;;;;;;5024231;28;19913;-71
2022/04/29 06:26:17;;;;;;;;;;;9.50;94.40;;;;;;5022157;28;19909;-71
2022/04/29 06:28:42;;;;;;;;;;;9.60;94.10;;;;;;5023233;28;19917;-71
2022/04/29 06:31:08;;;;;;;;;;;9.70;93.80;;;;;;5022446;28;19917;-70
2022/04/29 06:33:34;;;;;;;;;;;9.80;92.80;;;;;;5026745;28;19918;-71
2022/04/29 06:36:01;;;;;;;;;;;9.80;92.80;;;;;;5025359;28;19983;-71
2022/04/29 06:38:27;;;;;;;;;;;10.00;92.70;;;;;;5024040;28;20093;-71
2022/04/29 06:40:52;;;;;;;;;;;10.20;92.70;;;;;;5023862;28;19944;-71
2022/04/29 06:43:19;;;;;;;;;;;10.40;92.00;;;;;;5023009;28;20371;-71
2022/04/29 06:45:45;;;;;;;;;;;10.60;91.90;;;;;;5039017;28;19913;-71
2022/04/29 06:48:11;;;;;;;;;;;10.70;91.80;;;;;;5022804;28;19909;-71
2022/04/29 06:50:36;;;;;;;;;;;10.70;91.70;;;;;;5023705;28;20079;-71
2022/04/29 06:53:02;;;;;;;;;;;10.70;91.50;;;;;;5023717;28;19972;-71
2022/04/29 06:55:28;;;;;;;;;;;10.70;91.40;;;;;;5022826;28;19928;-71
2022/04/29 06:57:53;;;;;;;;;;;10.80;90.90;;;;;;5023879;28;20148;-71
2022/04/29 07:00:19;;;;;;;;;;;10.70;91.10;;;;;;5022516;28;20147;-71
2022/04/29 07:02:45;;;;;;;;;;;10.80;90.00;;;;;;5023474;28;19973;-71
2022/04/29 07:05:11;;;;;;;;;;;10.80;88.50;;;;;;5023732;28;20173;-72
2022/04/29 07:07:37;;;;;;;;;;;11.00;87.50;;;;;;5023553;28;19909;-71
2022/04/29 07:10:06;;;;;;;;;;;11.10;86.20;;;;;;5022482;28;19925;-71
2022/04/29 07:12:39;;;;;;;;;;;11.10;86.70;;;;;;5022061;28;20028;-72
2022/04/29 07:15:05;;;;;;;;;;;11.10;88.70;;;;;;5023411;28;19914;-72
2022/04/29 07:17:31;;;;;;;;;;;11.20;88.00;;;;;;5023468;28;19945;-71
2022/04/29 07:19:58;;;;;;;;;;;11.20;89.40;;;;;;5023462;28;19910;-71
2022/04/29 07:22:24;;;;;;;;;;;11.40;88.50;;;;;;5023204;28;19925;-71
2022/04/29 07:24:50;;;;;;;;;;;11.40;86.30;;;;;;5023418;28;20116;-71
2022/04/29 07:27:16;;;;;;;;;;;11.50;86.40;;;;;;5022253;28;19940;-71
2022/04/29 07:29:42;;;;;;;;;;;11.70;84.80;;;;;;5022249;28;19909;-71
2022/04/29 07:32:08;;;;;;;;;;;11.70;86.40;;;;;;5022600;28;19917;-73
2022/04/29 07:42:46;;;;;;;;;;;12.20;82.70;;;;;;5022819;28;19932;-71
2022/04/29 07:45:12;;;;;;;;;;;12.30;85.30;;;;;;5022647;28;20295;-73
2022/04/29 07:47:38;;;;;;;;;;;12.30;86.20;;;;;;5023335;28;19977;-72
2022/04/29 07:50:05;;;;;;;;;;;12.30;86.80;;;;;;5022027;28;19916;-74
2022/04/29 07:52:32;;;;;;;;;;;12.40;86.90;;;;;;5022833;28;19910;-70
2022/04/29 07:54:57;;;;;;;;;;;12.40;86.50;;;;;;5021986;28;20216;-74
2022/04/29 07:57:23;;;;;;;;;;;12.50;86.70;;;;;;5023594;28;19917;-72
2022/04/29 07:59:49;;;;;;;;;;;12.60;86.10;;;;;;5023655;28;19910;-72
2022/04/29 08:02:15;;;;;;;;;;;12.60;85.90;;;;;;5026976;28;19917;-79
2022/04/29 08:04:41;;;;;;;;;;;12.70;85.50;;;;;;5029844;28;19973;-80
2022/04/29 08:07:06;;;;;;;;;;;12.80;84.30;;;;;;5031606;28;20292;-76
2022/04/29 08:09:32;;;;;;;;;;;12.90;83.90;;;;;;5029659;28;19917;-72
2022/04/29 08:11:58;;;;;;;;;;;13.00;83.40;;;;;;5023700;28;19921;-72
2022/04/29 08:14:23;;;;;;;;;;;13.20;83.10;;;;;;5023036;28;19955;-71
2022/04/29 08:16:49;;;;;;;;;;;13.30;83.00;;;;;;5022719;28;19909;-72
2022/04/29 08:19:15;;;;;;;;;;;13.40;82.10;;;;;;5022675;28;19910;-71
2022/04/29 08:21:41;;;;;;;;;;;13.70;79.70;;;;;;5021468;28;19910;-71
2022/04/29 08:24:07;;;;;;;;;;;13.80;80.30;;;;;;5023011;28;20146;-71
2022/04/29 08:26:33;;;;;;;;;;;14.00;80.80;;;;;;5022874;28;19925;-71
2022/04/29 08:28:58;;;;;;;;;;;14.10;79.70;;;;;;5022715;28;19964;-71
2022/04/29 08:31:25;;;;;;;;;;;14.20;78.90;;;;;;5022232;28;19939;-71
2022/04/29 08:33:51;;;;;;;;;;;14.40;79.50;;;;;;5022746;28;19917;-71
2022/04/29 08:36:17;;;;;;;;;;;14.50;78.30;;;;;;5021769;28;19909;-74
2022/04/29 08:38:43;;;;;;;;;;;14.60;78.70;;;;;;5022592;28;19925;-71
2022/04/29 08:41:09;;;;;;;;;;;14.70;78.70;;;;;;5021286;28;19916;-72
2022/04/29 08:43:35;;;;;;;;;;;14.90;77.60;;;;;;5022486;28;19918;-71
2022/04/29 08:46:01;;;;;;;;;;;15.00;77.50;;;;;;5022123;28;20157;-72
2022/04/29 08:48:29;;;;;;;;;;;15.30;74.70;;;;;;5021281;28;19984;-71
2022/04/29 08:50:57;;;;;;;;;;;15.40;74.80;;;;;;5024737;28;19981;-71
2022/04/29 08:53:22;;;;;;;;;;;15.50;74.00;;;;;;5025052;28;19910;-71
2022/04/29 08:58:43;;;;;;;;;;;15.90;72.80;;;;;;5026161;28;19955;-71
2022/04/29 09:01:11;;;;;;;;;;;16.00;71.50;;;;;;5024556;28;19916;-71
2022/04/29 09:03:37;;;;;;;;;;;16.20;69.80;;;;;;5041249;28;20243;-71
2022/04/29 09:06:06;;;;;;;;;;;16.30;69.30;;;;;;5026021;28;19918;-71
2022/04/29 09:08:42;;;;;;;;;;;16.50;66.10;;;;;;5025873;28;19909;-72
2022/04/29 09:11:08;;;;;;;;;;;16.60;65.70;;;;;;5025870;28;19996;-72
2022/04/29 09:13:37;;;;;;;;;;;17.00;61.70;;;;;;5024655;28;19945;-71
2022/04/29 09:16:04;;;;;;;;;;;17.10;61.90;;;;;;5025559;28;19917;-71
2022/04/29 09:18:34;;;;;;;;;;;17.10;60.00;;;;;;5024635;28;20108;-71
2022/04/29 09:21:10;;;;;;;;;;;17.30;60.70;;;;;;5025327;28;20116;-71
2022/04/29 09:23:43;;;;;;;;;;;17.40;60.40;;;;;;5024563;28;19910;-71
2022/04/29 09:26:29;;;;;;;;;;;17.40;60.20;;;;;;5025687;28;20156;-72
2022/04/29 09:29:10;;;;;;;;;;;17.30;60.30;;;;;;5024843;28;19916;-72
2022/04/29 09:31:58;;;;;;;;;;;17.40;59.90;;;;;;5024857;28;20227;-72
2022/04/29 09:34:42;;;;;;;;;;;17.50;58.50;;;;;;5025520;28;19921;-72
2022/04/29 09:37:34;;;;;;;;;;;17.60;57.30;;;;;;5025336;28;20235;-72
2022/04/29 09:40:02;;;;;;;;;;;17.80;58.00;;;;;;5035961;28;19925;-72
2022/04/29 09:42:45;;;;;;;;;;;18.10;56.30;;;;;;5025063;28;19918;-72
2022/04/29 09:45:19;;;;;;;;;;;18.20;55.10;;;;;;5025149;28;19913;-72
2022/04/29 09:47:44;;;;;;;;;;;18.40;52.90;;;;;;5007509;28;20123;-72
2022/04/29 09:50:10;;;;;;;;;;;18.40;53.50;;;;;;5023754;28;19910;-72
2022/04/29 09:52:39;;;;;;;;;;;18.50;51.70;;;;;;5023772;28;19984;-72
2022/04/29 09:55:18;;;;;;;;;;;18.50;51.10;;;;;;5025194;28;20120;-71
2022/04/29 09:57:48;;;;;;;;;;;18.40;50.60;;;;;;5024134;28;19929;-72
2022/04/29 10:00:14;;;;;;;;;;;18.40;49.60;;;;;;5025126;28;19917;-72
2022/04/29 10:02:41;;;;;;;;;;;18.40;51.10;;;;;;5024464;28;19909;-72
2022/04/29 10:05:07;;;;;;;;;;;18.40;51.40;;;;;;5023788;28;19980;-71
2022/04/29 10:07:33;;;;;;;;;;;18.60;52.50;;;;;;5023643;28;19917;-72
2022/04/29 10:09:58;;;;;;;;;;;18.50;49.40;;;;;;5023758;28;19909;-72
2022/04/29 10:12:25;;;;;;;;;;;18.60;47.90;;;;;;5023379;28;20003;-72
2022/04/29 10:14:59;;;;;;;;;;;18.60;48.60;;;;;;5024646;28;19925;-72
2022/04/29 10:23:05;;;;;;;;;;;18.90;48.20;;;;;;5022638;28;19920;-72
2022/04/29 10:25:31;;;;;;;;;;;18.90;46.30;;;;;;5023375;28;19909;-71
2022/04/29 10:27:57;;;;;;;;;;;18.90;45.90;;;;;;5022187;28;19988;-72
2022/04/29 10:30:31;;;;;;;;;;;18.90;45.60;;;;;;5022146;28;19917;-72
2022/04/29 10:33:09;;;;;;;;;;;19.20;47.30;;;;;;5021929;28;19909;-72
2022/04/29 10:35:45;;;;;;;;;;;19.30;47.50;;;;;;5023154;28;19914;-72
2022/04/29 10:38:13;;;;;;;;;;;19.50;45.60;;;;;;5022988;28;19921;-72
2022/04/29 10:40:39;;;;;;;;;;;19.70;45.50;;;;;;5022844;28;19909;-72
2022/04/29 10:43:09;;;;;;;;;;;19.80;45.10;;;;;;5023146;28;20108;-72
2022/04/29 10:45:36;;;;;;;;;;;19.80;44.20;;;;;;5021499;28;19913;-72
2022/04/29 10:48:28;;;;;;;;;;;20.00;43.80;;;;;;5021679;28;19917;-72
2022/04/29 10:50:54;;;;;;;;;;;20.00;43.30;;;;;;5022772;28;20089;-72
2022/04/29 10:53:22;;;;;;;;;;;20.00;42.40;;;;;;5022812;28;19916;-72
2022/04/29 10:55:47;;;;;;;;;;;20.20;42.70;;;;;;5022937;28;19913;-72
2022/04/29 10:58:22;;;;;;;;;;;20.20;46.10;;;;;;5021471;28;19978;-72
2022/04/29 11:01:14;;;;;;;;;;;20.30;44.00;;;;;;5022275;28;19927;-72
2022/04/29 11:03:41;;;;;;;;;;;20.50;42.50;;;;;;4992354;28;19976;-72
2022/04/29 11:06:11;;;;;;;;;;;20.50;43.20;;;;;;5022732;28;19941;-72
2022/04/29 11:08:38;;;;;;;;;;;20.70;42.10;;;;;;5022290;28;20328;-72
2022/04/29 11:11:04;;;;;;;;;;;21.00;43.50;;;;;;5022016;28;19923;-72
2022/04/29 11:13:34;;;;;;;;;;;20.90;42.60;;;;;;5021878;28;19925;-72
2022/04/29 11:16:10;;;;;;;;;;;21.10;42.60;;;;;;5021107;28;20120;-72
2022/04/29 11:18:36;;;;;;;;;;;21.30;41.70;;;;;;5022349;28;19921;-72
2022/04/29 11:24:40;;;;;;;;;;;21.60;41.70;;;;;;5020708;28;19909;-72
2022/04/29 11:26:46;;;;;;;;;;;22.10;42.60;;;;;;5021296;28;20335;-72
2022/04/29 11:29:12;;;;;;;;;;;22.20;39.60;;;;;;5022656;28;20167;-72
2022/04/29 11:31:38;;;;;;;;;;;22.30;38.80;;;;;;5020501;28;19917;-72
2022/04/29 11:34:06;;;;;;;;;;;22.40;41.00;;;;;;5021172;28;19913;-72
2022/04/29 11:36:31;;;;;;;;;;;22.40;38.80;;;;;;5020924;28;19972;-72
2022/04/29 11:38:57;;;;;;;;;;;22.70;40.40;;;;;;5020930;28;19917;-72
2022/04/29 11:41:27;;;;;;;;;;;23.10;39.70;;;;;;5021923;28;19917;-72
2022/04/29 11:43:53;;;;;;;;;;;23.20;38.10;;;;;;5022051;28;19918;-72
2022/04/29 11:46:20;;;;;;;;;;;23.60;36.80;;;;;;5020453;28;20123;-72
2022/04/29 11:48:58;;;;;;;;;;;23.50;36.90;;;;;;5022007;28;19959;-72
2022/04/29 11:51:27;;;;;;;;;;;23.50;38.30;;;;;;5021712;28;19917;-72
2022/04/29 11:53:59;;;;;;;;;;;23.60;37.60;;;;;;5022025;28;19922;-72
2022/04/29 11:56:51;;;;;;;;;;;23.70;37.40;;;;;;5020677;28;19910;-72
2022/04/29 11:59:16;;;;;;;;;;;23.60;36.80;;;;;;5017997;28;19955;-70
2022/04/29 12:01:42;;;;;;;;;;;23.40;37.10;;;;;;5021304;28;20221;-73
2022/04/29 12:04:11;;;;;;;;;;;23.30;38.10;;;;;;5020747;28;19928;-70
2022/04/29 12:06:54;;;;;;;;;;;23.90;38.40;;;;;;5021840;28;19940;-72
2022/04/29 12:09:30;;;;;;;;;;;24.40;38.20;;;;;;5021918;28;20175;-72
2022/04/29 12:11:55;;;;;;;;;;;24.30;36.60;;;;;;5036753;28;19917;-72
2022/04/29 12:14:21;;;;;;;;;;;24.50;35.40;;;;;;5021847;28;19913;-72
2022/04/29 12:16:47;;;;;;;;;;;24.50;37.10;;;;;;5021292;28;19972;-70
2022/04/29 12:19:16;;;;;;;;;;;24.90;36.30;;;;;;5021736;28;20005;-70
2022/04/29 12:21:55;;;;;;;;;;;25.10;34.30;;;;;;5020195;28;20028;-70
2022/04/29 12:24:21;;;;;;;;;;;25.10;35.90;;;;;;5023220;28;20174;-70
2022/04/29 12:27:06;;;;;;;;;;;26.20;32.90;;;;;;5025672;28;20240;-72
2022/04/29 12:29:32;;;;;;;;;;;26.00;32.90;;;;;;5025716;28;20136;-72
2022/04/29 12:35:13;;;;;;;;;;;27.50;32.20;;;;;;5018853;28;19921;-70
2022/04/29 12:37:39;;;;;;;;;;;27.30;31.50;;;;;;5024290;28;19916;-71
2022/04/29 12:40:08;;;;;;;;;;;27.70;31.20;;;;;;5024312;28;19910;-70
2022/04/29 12:42:34;;;;;;;;;;;28.40;31.30;;;;;;5025176;28;19968;-70
2022/04/29 12:45:14;;;;;;;;;;;29.10;30.70;;;;;;5025229;28;19910;-70
2022/04/29 12:48:00;;;;;;;;;;;29.60;30.40;;;;;;5025274;28;19910;-70
2022/04/29 12:50:26;;;;;;;;;;;30.90;28.70;;;;;;5025416;28;20272;-71
2022/04/29 12:53:09;;;;;;;;;;;29.30;29.50;;;;;;5023796;28;19913;-71
2022/04/29 12:55:36;;;;;;;;;;;28.10;30.50;;;;;;5025240;28;19936;-72
2022/04/29 12:58:05;;;;;;;;;;;28.00;29.40;;;;;;5025240;28;19925;-72
2022/04/29 13:00:31;;;;;;;;;;;28.70;30.00;;;;;;5025209;28;19909;-72
2022/04/29 13:03:01;;;;;;;;;;;29.00;29.10;;;;;;5025023;28;19956;-73
2022/04/29 13:05:27;;;;;;;;;;;28.50;29.80;;;;;;5024403;28;19945;-72
2022/04/29 13:07:53;;;;;;;;;;;28.70;30.40;;;;;;5025049;28;19933;-72
2022/04/29 13:10:19;;;;;;;;;;;30.20;29.10;;;;;;5025001;28;19910;-70
2022/04/29 13:12:45;;;;;;;;;;;31.00;28.30;;;;;;5024626;28;19960;-70
2022/04/29 13:15:11;;;;;;;;;;;31.10;28.00;;;;;;5024873;28;19921;-70
2022/04/29 13:17:37;;;;;;;;;;;31.30;28.30;;;;;;5024212;28;19913;-70
2022/04/29 13:20:04;;;;;;;;;;;31.30;28.00;;;;;;5024581;28;19917;-70
2022/04/29 13:22:30;;;;;;;;;;;31.30;28.10;;;;;;5024219;28;19967;-70
2022/04/29 13:24:58;;;;;;;;;;;31.10;27.50;;;;;;5024387;28;19917;-71
2022/04/29 13:27:25;;;;;;;;;;;30.30;27.80;;;;;;5024436;28;20155;-72
2022/04/29 13:29:50;;;;;;;;;;;30.40;27.40;;;;;;5024322;28;19921;-73
2022/04/29 13:32:16;;;;;;;;;;;29.60;27.90;;;;;;5023777;28;20126;-70
2022/04/29 13:34:42;;;;;;;;;;;29.60;28.00;;;;;;5023796;28;19993;-71
2022/04/29 13:37:07;;;;;;;;;;;29.80;27.90;;;;;;5024187;28;19925;-70
2022/04/29 13:39:33;;;;;;;;;;;29.80;28.40;;;;;;5024137;28;19917;-71
2022/04/29 13:41:59;;;;;;;;;;;29.90;27.80;;;;;;5024209;28;19920;-73
2022/04/29 13:44:25;;;;;;;;;;;30.30;28.50;;;;;;5024135;28;19909;-70
2022/04/29 13:46:50;;;;;;;;;;;30.70;28.80;;;;;;5023660;28;19913;-71
2022/04/29 13:49:16;;;;;;;;;;;31.80;26.30;;;;;;5024027;28;19910;-70
2022/04/29 13:51:41;;;;;;;;;;;32.30;26.80;;;;;;5023682;28;19932;-71
2022/04/29 13:54:08;;;;;;;;;;;33.80;25.60;;;;;;5023972;28;19929;-71
2022/04/29 13:56:35;;;;;;;;;;;34.10;25.70;;;;;;5024024;28;19910;-71
2022/04/29 13:59:02;;;;;;;;;;;33.70;25.70;;;;;;5024071;28;19910;-71
2022/04/29 14:01:27;;;;;;;;;;;34.00;25.20;;;;;;5023988;28;19986;-71
2022/04/29 14:03:53;;;;;;;;;;;35.20;24.90;;;;;;5024191;28;19917;-72
2022/04/29 14:06:19;;;;;;;;;;;36.70;24.00;;;;;;5022880;28;19920;-71
2022/04/29 14:08:45;;;;;;;;;;;36.80;24.30;;;;;;5023968;28;20112;-72
2022/04/29 14:11:12;;;;;;;;;;;37.10;24.00;;;;;;5023870;28;19945;-72
2022/04/29 14:13:38;;;;;;;;;;;36.60;24.10;;;;;;5024323;28;20313;-72
2022/04/29 14:16:04;;;;;;;;;;;36.90;23.50;;;;;;5024200;28;19909;-71
2022/04/29 14:18:29;;;;;;;;;;;36.30;23.70;;;;;;5025061;28;19955;-73
2022/04/29 14:20:55;;;;;;;;;;;36.80;24.00;;;;;;5024443;28;19937;-72
2022/04/29 14:23:21;;;;;;;;;;;37.00;24.50;;;;;;5024430;28;20069;-72
2022/04/29 14:25:46;;;;;;;;;;;37.70;23.40;;;;;;5024176;28;19910;-72
2022/04/29 14:28:14;;;;;;;;;;;37.90;24.00;;;;;;5023862;28;19971;-72
2022/04/29 14:30:40;;;;;;;;;;;37.60;24.20;;;;;;5023161;28;19909;-72
2022/04/29 14:33:09;;;;;;;;;;;37.60;24.10;;;;;;5021767;28;19916;-72
2022/04/29 14:35:35;;;;;;;;;;;37.90;23.60;;;;;;5005811;28;19920;-72
2022/04/29 14:38:01;;;;;;;;;;;37.90;23.20;;;;;;5021934;28;19909;-72
2022/04/29 14:40:27;;;;;;;;;;;38.00;23.10;;;;;;5023230;28;20085;-72
2022/04/29 14:42:53;;;;;;;;;;;38.00;22.80;;;;;;5022969;28;19924;-72
2022/04/29 14:45:18;;;;;;;;;;;37.90;23.40;;;;;;5022945;28;19929;-72
2022/04/29 14:47:45;;;;;;;;;;;38.40;22.70;;;;;;5021907;28;19963;-72
2022/04/29 14:50:11;;;;;;;;;;;37.30;23.50;;;;;;5021832;28;19932;-72
2022/04/29 14:52:38;;;;;;;;;;;36.50;23.90;;;;;;5022823;28;20160;-72